Macquarie Island, Australia
Current Conditions -  °F | °C
As of 3:00 AM on Thursday 29 Jan 2015 (Local Time) from YMHB Reporting Station
Broken Clouds Broken Clouds  
Wind Chill: 55°   Ceiling: 6000
Heat Index: 55°   Visibility: 6mi
Dew Point: 43°   Wind: 13mph
Humidity: 63%   Direction: 150°SSE
Pressure: 30.24"   Gusts: NA
Location:  54.48°S, 158.95°E
Report Text: YMHB 281600Z 15011KT 9999 FEW025 BKN060 13/06 Q1024
Loading
Personal Weather Stations






























Interactive Weather Map New forecast layout! Learn more

10-Day Weather Forecast

Advertisements
Track Severe Weather on mobile